sensor_id;sensor_type;location;lat;lon;timestamp;temperature;humidity
67750;DHT22;54550;48.838;8.828;2023-04-06T00:00:56;-0.70;99.90
67750;DHT22;54550;48.838;8.828;2023-04-06T00:03:21;-0.70;99.90
67750;DHT22;54550;48.838;8.828;2023-04-06T00:05:47;-0.70;99.90
67750;DHT22;54550;48.838;8.828;2023-04-06T00:08:13;-0.80;99.90
67750;DHT22;54550;48.838;8.828;2023-04-06T00:10:38;-0.90;99.90
67750;DHT22;54550;48.838;8.828;2023-04-06T00:13:06;-0.90;99.90
67750;DHT22;54550;48.838;8.828;2023-04-06T00:15:32;-1.00;99.90
67750;DHT22;54550;48.838;8.828;2023-04-06T00:17:57;-1.00;99.90
67750;DHT22;54550;48.838;8.828;2023-04-06T00:20:23;-1.00;99.90
67750;DHT22;54550;48.838;8.828;2023-04-06T00:22:50;-1.00;99.90
67750;DHT22;54550;48.838;8.828;2023-04-06T00:25:15;-1.10;99.90
67750;DHT22;54550;48.838;8.828;2023-04-06T00:27:42;-1.00;99.90
67750;DHT22;54550;48.838;8.828;2023-04-06T00:30:08;-1.00;99.90
67750;DHT22;54550;48.838;8.828;2023-04-06T00:32:34;-1.00;99.90
67750;DHT22;54550;48.838;8.828;2023-04-06T00:35:05;-1.00;99.90
67750;DHT22;54550;48.838;8.828;2023-04-06T00:37:31;-1.00;99.90
67750;DHT22;54550;48.838;8.828;2023-04-06T00:39:56;-1.00;99.90
67750;DHT22;54550;48.838;8.828;2023-04-06T00:42:23;-0.90;99.90
67750;DHT22;54550;48.838;8.828;2023-04-06T00:44:56;-0.90;99.90
67750;DHT22;54550;48.838;8.828;2023-04-06T00:47:22;-0.80;99.90
67750;DHT22;54550;48.838;8.828;2023-04-06T00:49:48;-0.90;99.90
67750;DHT22;54550;48.838;8.828;2023-04-06T00:52:15;-0.80;99.90
67750;DHT22;54550;48.838;8.828;2023-04-06T00:54:41;-0.90;99.90
67750;DHT22;54550;48.838;8.828;2023-04-06T00:57:06;-0.90;99.90
67750;DHT22;54550;48.838;8.828;2023-04-06T00:59:32;-1.00;99.90
67750;DHT22;54550;48.838;8.828;2023-04-06T01:01:58;-1.00;99.90
67750;DHT22;54550;48.838;8.828;2023-04-06T01:04:24;-1.10;99.90
67750;DHT22;54550;48.838;8.828;2023-04-06T01:06:50;-1.10;99.90
67750;DHT22;54550;48.838;8.828;2023-04-06T01:09:18;-1.20;99.90
67750;DHT22;54550;48.838;8.828;2023-04-06T01:11:44;-1.30;99.90
67750;DHT22;54550;48.838;8.828;2023-04-06T01:14:10;-1.30;99.90
67750;DHT22;54550;48.838;8.828;2023-04-06T01:16:36;-1.40;99.90
67750;DHT22;54550;48.838;8.828;2023-04-06T01:19:09;-1.50;99.90
67750;DHT22;54550;48.838;8.828;2023-04-06T01:21:38;-1.40;99.90
67750;DHT22;54550;48.838;8.828;2023-04-06T01:24:04;-1.30;99.90
67750;DHT22;54550;48.838;8.828;2023-04-06T01:26:30;-1.20;99.90
67750;DHT22;54550;48.838;8.828;2023-04-06T01:28:56;-1.10;99.90
67750;DHT22;54550;48.838;8.828;2023-04-06T01:31:25;-1.10;99.90
67750;DHT22;54550;48.838;8.828;2023-04-06T01:33:52;-1.00;99.90
67750;DHT22;54550;48.838;8.828;2023-04-06T01:36:18;-1.00;99.90
67750;DHT22;54550;48.838;8.828;2023-04-06T01:38:44;-0.90;99.90
67750;DHT22;54550;48.838;8.828;2023-04-06T01:41:10;-0.90;99.90
67750;DHT22;54550;48.838;8.828;2023-04-06T01:43:36;-0.90;99.90
67750;DHT22;54550;48.838;8.828;2023-04-06T01:46:01;-0.80;99.90
67750;DHT22;54550;48.838;8.828;2023-04-06T01:48:27;-0.80;99.90
67750;DHT22;54550;48.838;8.828;2023-04-06T01:50:53;-0.90;99.90
67750;DHT22;54550;48.838;8.828;2023-04-06T01:53:19;-0.90;99.90
67750;DHT22;54550;48.838;8.828;2023-04-06T01:55:45;-1.00;99.90
67750;DHT22;54550;48.838;8.828;2023-04-06T01:58:12;-1.10;99.90
67750;DHT22;54550;48.838;8.828;2023-04-06T02:00:37;-1.10;99.90
67750;DHT22;54550;48.838;8.828;2023-04-06T02:03:03;-1.30;99.90
67750;DHT22;54550;48.838;8.828;2023-04-06T02:05:30;-1.40;99.90
67750;DHT22;54550;48.838;8.828;2023-04-06T02:07:56;-1.50;99.90
67750;DHT22;54550;48.838;8.828;2023-04-06T02:10:22;-1.50;99.90
67750;DHT22;54550;48.838;8.828;2023-04-06T02:12:48;-1.60;99.90
67750;DHT22;54550;48.838;8.828;2023-04-06T02:15:14;-1.50;99.90
67750;DHT22;54550;48.838;8.828;2023-04-06T02:17:40;-1.40;99.90
67750;DHT22;54550;48.838;8.828;2023-04-06T02:20:06;-1.30;99.90
67750;DHT22;54550;48.838;8.828;2023-04-06T02:22:33;-1.10;99.90
67750;DHT22;54550;48.838;8.828;2023-04-06T02:24:58;-1.00;99.90
67750;DHT22;54550;48.838;8.828;2023-04-06T02:27:24;-1.00;99.90
67750;DHT22;54550;48.838;8.828;2023-04-06T02:29:49;-1.00;99.90
67750;DHT22;54550;48.838;8.828;2023-04-06T02:32:15;-0.90;99.90
67750;DHT22;54550;48.838;8.828;2023-04-06T02:34:41;-0.90;99.90
67750;DHT22;54550;48.838;8.828;2023-04-06T02:37:06;-0.90;99.90
67750;DHT22;54550;48.838;8.828;2023-04-06T02:39:32;-1.00;99.90
67750;DHT22;54550;48.838;8.828;2023-04-06T02:41:57;-1.10;99.90
67750;DHT22;54550;48.838;8.828;2023-04-06T02:44:23;-1.10;99.90
67750;DHT22;54550;48.838;8.828;2023-04-06T02:46:48;-1.10;99.90
67750;DHT22;54550;48.838;8.828;2023-04-06T02:49:14;-1.10;99.90
67750;DHT22;54550;48.838;8.828;2023-04-06T02:51:40;-1.10;99.90
67750;DHT22;54550;48.838;8.828;2023-04-06T02:54:06;-1.10;99.90
67750;DHT22;54550;48.838;8.828;2023-04-06T02:56:31;-1.20;99.90
67750;DHT22;54550;48.838;8.828;2023-04-06T02:58:57;-1.20;99.90
67750;DHT22;54550;48.838;8.828;2023-04-06T03:01:22;-1.30;99.90
67750;DHT22;54550;48.838;8.828;2023-04-06T03:03:48;-1.30;99.90
67750;DHT22;54550;48.838;8.828;2023-04-06T03:06:14;-1.30;99.90
67750;DHT22;54550;48.838;8.828;2023-04-06T03:08:39;-1.40;99.90
67750;DHT22;54550;48.838;8.828;2023-04-06T03:11:05;-1.40;99.90
67750;DHT22;54550;48.838;8.828;2023-04-06T03:13:31;-1.50;99.90
67750;DHT22;54550;48.838;8.828;2023-04-06T03:15:56;-1.50;99.90
67750;DHT22;54550;48.838;8.828;2023-04-06T03:18:23;-1.50;99.90
67750;DHT22;54550;48.838;8.828;2023-04-06T03:20:49;-1.60;99.90
67750;DHT22;54550;48.838;8.828;2023-04-06T03:23:15;-1.70;99.90
67750;DHT22;54550;48.838;8.828;2023-04-06T03:25:41;-1.70;99.90
67750;DHT22;54550;48.838;8.828;2023-04-06T03:28:06;-1.70;99.90
67750;DHT22;54550;48.838;8.828;2023-04-06T03:30:32;-1.80;99.90
67750;DHT22;54550;48.838;8.828;2023-04-06T03:32:58;-1.90;99.90
67750;DHT22;54550;48.838;8.828;2023-04-06T03:35:24;-1.90;99.90
67750;DHT22;54550;48.838;8.828;2023-04-06T03:37:49;-1.90;99.90
67750;DHT22;54550;48.838;8.828;2023-04-06T03:40:15;-1.90;99.90
67750;DHT22;54550;48.838;8.828;2023-04-06T03:42:41;-1.80;99.90
67750;DHT22;54550;48.838;8.828;2023-04-06T03:45:07;-1.80;99.90
67750;DHT22;54550;48.838;8.828;2023-04-06T03:47:33;-1.80;99.90
67750;DHT22;54550;48.838;8.828;2023-04-06T03:49:59;-1.80;99.90
67750;DHT22;54550;48.838;8.828;2023-04-06T03:52:25;-1.80;99.90
67750;DHT22;54550;48.838;8.828;2023-04-06T03:54:51;-1.80;99.90
67750;DHT22;54550;48.838;8.828;2023-04-06T03:57:17;-1.70;99.90
67750;DHT22;54550;48.838;8.828;2023-04-06T03:59:42;-1.80;99.90
67750;DHT22;54550;48.838;8.828;2023-04-06T04:02:08;-1.80;99.90
67750;DHT22;54550;48.838;8.828;2023-04-06T04:04:33;-1.80;99.90
67750;DHT22;54550;48.838;8.828;2023-04-06T04:06:59;-1.90;99.90
67750;DHT22;54550;48.838;8.828;2023-04-06T04:09:25;-1.80;99.90
67750;DHT22;54550;48.838;8.828;2023-04-06T04:11:50;-1.90;99.90
67750;DHT22;54550;48.838;8.828;2023-04-06T04:14:16;-1.80;99.90
67750;DHT22;54550;48.838;8.828;2023-04-06T04:16:42;-1.70;99.90
67750;DHT22;54550;48.838;8.828;2023-04-06T04:19:08;-1.70;99.90
67750;DHT22;54550;48.838;8.828;2023-04-06T04:21:41;-1.70;99.90
67750;DHT22;54550;48.838;8.828;2023-04-06T04:24:07;-1.70;99.90
67750;DHT22;54550;48.838;8.828;2023-04-06T04:26:33;-1.70;99.90
67750;DHT22;54550;48.838;8.828;2023-04-06T04:28:58;-1.70;99.90
67750;DHT22;54550;48.838;8.828;2023-04-06T04:31:24;-1.70;99.90
67750;DHT22;54550;48.838;8.828;2023-04-06T04:33:49;-1.60;99.90
67750;DHT22;54550;48.838;8.828;2023-04-06T04:36:15;-1.70;99.90
67750;DHT22;54550;48.838;8.828;2023-04-06T04:38:41;-1.80;99.90
67750;DHT22;54550;48.838;8.828;2023-04-06T04:41:06;-1.80;99.90
67750;DHT22;54550;48.838;8.828;2023-04-06T04:43:32;-1.80;99.90
67750;DHT22;54550;48.838;8.828;2023-04-06T04:45:57;-1.90;99.90
67750;DHT22;54550;48.838;8.828;2023-04-06T04:48:24;-1.90;99.90
67750;DHT22;54550;48.838;8.828;2023-04-06T04:50:50;-1.90;99.90
67750;DHT22;54550;48.838;8.828;2023-04-06T04:53:16;-1.90;99.90
67750;DHT22;54550;48.838;8.828;2023-04-06T04:55:41;-1.90;99.90
67750;DHT22;54550;48.838;8.828;2023-04-06T04:58:07;-1.90;99.90
67750;DHT22;54550;48.838;8.828;2023-04-06T05:00:34;-1.90;99.90
67750;DHT22;54550;48.838;8.828;2023-04-06T05:03:00;-1.90;99.90
67750;DHT22;54550;48.838;8.828;2023-04-06T05:05:25;-1.90;99.90
67750;DHT22;54550;48.838;8.828;2023-04-06T05:07:51;-2.00;99.90
67750;DHT22;54550;48.838;8.828;2023-04-06T05:10:17;-2.00;99.90
67750;DHT22;54550;48.838;8.828;2023-04-06T05:12:42;-2.00;99.90
67750;DHT22;54550;48.838;8.828;2023-04-06T05:15:09;-2.10;99.90
67750;DHT22;54550;48.838;8.828;2023-04-06T05:17:35;-2.10;99.90
67750;DHT22;54550;48.838;8.828;2023-04-06T05:20:00;-2.10;99.90
67750;DHT22;54550;48.838;8.828;2023-04-06T05:22:26;-2.00;99.90
67750;DHT22;54550;48.838;8.828;2023-04-06T05:24:52;-2.00;99.90
67750;DHT22;54550;48.838;8.828;2023-04-06T05:27:17;-1.90;99.90
67750;DHT22;54550;48.838;8.828;2023-04-06T05:29:43;-1.90;99.90
67750;DHT22;54550;48.838;8.828;2023-04-06T05:32:09;-2.00;99.90
67750;DHT22;54550;48.838;8.828;2023-04-06T05:34:34;-2.00;99.90
67750;DHT22;54550;48.838;8.828;2023-04-06T05:37:00;-2.00;99.90
67750;DHT22;54550;48.838;8.828;2023-04-06T05:39:26;-2.00;99.90
67750;DHT22;54550;48.838;8.828;2023-04-06T05:41:51;-1.90;99.90
67750;DHT22;54550;48.838;8.828;2023-04-06T05:44:17;-1.90;99.90
67750;DHT22;54550;48.838;8.828;2023-04-06T05:46:43;-1.90;99.90
67750;DHT22;54550;48.838;8.828;2023-04-06T05:49:08;-1.80;99.90
67750;DHT22;54550;48.838;8.828;2023-04-06T05:51:34;-1.60;99.90
67750;DHT22;54550;48.838;8.828;2023-04-06T05:54:00;-1.60;99.90
67750;DHT22;54550;48.838;8.828;2023-04-06T05:56:25;-1.50;99.90
67750;DHT22;54550;48.838;8.828;2023-04-06T05:58:51;-1.30;99.90
67750;DHT22;54550;48.838;8.828;2023-04-06T06:01:17;-1.00;99.90
67750;DHT22;54550;48.838;8.828;2023-04-06T06:03:42;-0.80;99.90
67750;DHT22;54550;48.838;8.828;2023-04-06T06:06:08;-0.70;99.90
67750;DHT22;54550;48.838;8.828;2023-04-06T06:08:33;-0.60;99.90
67750;DHT22;54550;48.838;8.828;2023-04-06T06:10:59;-0.50;99.90
67750;DHT22;54550;48.838;8.828;2023-04-06T06:13:25;-0.50;99.90
67750;DHT22;54550;48.838;8.828;2023-04-06T06:15:51;-0.50;99.90
67750;DHT22;54550;48.838;8.828;2023-04-06T06:18:16;-0.50;99.90
67750;DHT22;54550;48.838;8.828;2023-04-06T06:20:42;-0.50;99.90
67750;DHT22;54550;48.838;8.828;2023-04-06T06:23:08;-0.50;99.90
67750;DHT22;54550;48.838;8.828;2023-04-06T06:25:33;-0.40;99.90
67750;DHT22;54550;48.838;8.828;2023-04-06T06:27:59;-0.40;99.90
67750;DHT22;54550;48.838;8.828;2023-04-06T06:30:25;-0.30;99.90
67750;DHT22;54550;48.838;8.828;2023-04-06T06:32:51;-0.30;99.90
67750;DHT22;54550;48.838;8.828;2023-04-06T06:35:17;-0.20;99.90
67750;DHT22;54550;48.838;8.828;2023-04-06T06:37:43;-0.10;99.90
67750;DHT22;54550;48.838;8.828;2023-04-06T06:40:09;0.00;99.90
67750;DHT22;54550;48.838;8.828;2023-04-06T06:42:35;0.10;99.90
67750;DHT22;54550;48.838;8.828;2023-04-06T06:45:01;0.30;99.90
67750;DHT22;54550;48.838;8.828;2023-04-06T06:47:27;0.40;99.90
67750;DHT22;54550;48.838;8.828;2023-04-06T06:49:52;0.50;99.90
67750;DHT22;54550;48.838;8.828;2023-04-06T06:52:18;0.70;99.90
67750;DHT22;54550;48.838;8.828;2023-04-06T06:54:44;0.80;99.90
67750;DHT22;54550;48.838;8.828;2023-04-06T06:57:09;0.90;99.90
67750;DHT22;54550;48.838;8.828;2023-04-06T06:59:35;1.00;99.90
67750;DHT22;54550;48.838;8.828;2023-04-06T07:02:01;1.20;99.90
67750;DHT22;54550;48.838;8.828;2023-04-06T07:04:26;1.30;99.90
67750;DHT22;54550;48.838;8.828;2023-04-06T07:06:52;1.50;99.90
67750;DHT22;54550;48.838;8.828;2023-04-06T07:09:18;1.70;99.90
67750;DHT22;54550;48.838;8.828;2023-04-06T07:11:44;1.90;99.90
67750;DHT22;54550;48.838;8.828;2023-04-06T07:14:09;2.00;99.90
67750;DHT22;54550;48.838;8.828;2023-04-06T07:16:37;2.10;99.90
67750;DHT22;54550;48.838;8.828;2023-04-06T07:19:02;2.30;99.90
67750;DHT22;54550;48.838;8.828;2023-04-06T07:21:28;2.40;99.90
67750;DHT22;54550;48.838;8.828;2023-04-06T07:23:54;2.50;99.90
67750;DHT22;54550;48.838;8.828;2023-04-06T07:26:19;2.70;99.90
67750;DHT22;54550;48.838;8.828;2023-04-06T07:28:45;2.90;99.90
67750;DHT22;54550;48.838;8.828;2023-04-06T07:31:11;3.00;99.90
67750;DHT22;54550;48.838;8.828;2023-04-06T07:33:37;3.20;99.90
67750;DHT22;54550;48.838;8.828;2023-04-06T07:36:02;3.40;99.90
67750;DHT22;54550;48.838;8.828;2023-04-06T07:38:28;3.60;99.90
67750;DHT22;54550;48.838;8.828;2023-04-06T07:40:54;3.80;99.90
67750;DHT22;54550;48.838;8.828;2023-04-06T07:43:19;3.90;99.90
67750;DHT22;54550;48.838;8.828;2023-04-06T07:45:45;4.00;99.90
67750;DHT22;54550;48.838;8.828;2023-04-06T07:48:11;4.20;99.90
67750;DHT22;54550;48.838;8.828;2023-04-06T07:50:36;4.40;99.90
67750;DHT22;54550;48.838;8.828;2023-04-06T07:53:02;4.60;99.90
67750;DHT22;54550;48.838;8.828;2023-04-06T07:55:28;4.90;99.90
67750;DHT22;54550;48.838;8.828;2023-04-06T07:57:53;5.30;99.90
67750;DHT22;54550;48.838;8.828;2023-04-06T08:00:20;5.90;99.90
67750;DHT22;54550;48.838;8.828;2023-04-06T08:02:46;6.80;99.90
67750;DHT22;54550;48.838;8.828;2023-04-06T08:05:11;7.80;99.50
67750;DHT22;54550;48.838;8.828;2023-04-06T08:07:37;9.10;98.30
67750;DHT22;54550;48.838;8.828;2023-04-06T08:10:03;10.30;96.70
67750;DHT22;54550;48.838;8.828;2023-04-06T08:12:29;11.20;94.70
67750;DHT22;54550;48.838;8.828;2023-04-06T08:14:55;12.10;93.40
67750;DHT22;54550;48.838;8.828;2023-04-06T08:17:22;12.70;92.90
67750;DHT22;54550;48.838;8.828;2023-04-06T08:19:47;13.10;93.20
67750;DHT22;54550;48.838;8.828;2023-04-06T08:22:13;13.40;91.70
67750;DHT22;54550;48.838;8.828;2023-04-06T08:24:39;13.60;91.50
67750;DHT22;54550;48.838;8.828;2023-04-06T08:27:04;12.80;92.20
67750;DHT22;54550;48.838;8.828;2023-04-06T08:29:30;12.50;93.80
67750;DHT22;54550;48.838;8.828;2023-04-06T08:31:56;12.90;94.20
67750;DHT22;54550;48.838;8.828;2023-04-06T08:34:22;13.20;93.50
67750;DHT22;54550;48.838;8.828;2023-04-06T08:36:48;13.70;93.00
67750;DHT22;54550;48.838;8.828;2023-04-06T08:39:13;14.00;90.00
67750;DHT22;54550;48.838;8.828;2023-04-06T08:41:42;14.60;82.60
67750;DHT22;54550;48.838;8.828;2023-04-06T08:44:08;15.20;85.30
67750;DHT22;54550;48.838;8.828;2023-04-06T08:46:34;15.80;81.20
67750;DHT22;54550;48.838;8.828;2023-04-06T08:49:01;16.30;84.30
67750;DHT22;54550;48.838;8.828;2023-04-06T08:51:28;16.60;84.50
67750;DHT22;54550;48.838;8.828;2023-04-06T08:53:57;16.80;86.20
67750;DHT22;54550;48.838;8.828;2023-04-06T08:56:27;16.80;81.90
67750;DHT22;54550;48.838;8.828;2023-04-06T08:58:54;16.80;83.50
67750;DHT22;54550;48.838;8.828;2023-04-06T09:01:27;16.50;78.40
67750;DHT22;54550;48.838;8.828;2023-04-06T09:03:58;16.30;78.80
67750;DHT22;54550;48.838;8.828;2023-04-06T09:06:25;14.90;82.60
67750;DHT22;54550;48.838;8.828;2023-04-06T09:08:52;15.30;80.60
67750;DHT22;54550;48.838;8.828;2023-04-06T09:11:18;15.20;79.50
67750;DHT22;54550;48.838;8.828;2023-04-06T09:13:49;15.50;79.40
67750;DHT22;54550;48.838;8.828;2023-04-06T09:16:15;15.50;77.40
67750;DHT22;54550;48.838;8.828;2023-04-06T09:18:41;15.20;79.30
67750;DHT22;54550;48.838;8.828;2023-04-06T09:21:08;15.80;80.60
67750;DHT22;54550;48.838;8.828;2023-04-06T09:23:34;16.30;80.70
67750;DHT22;54550;48.838;8.828;2023-04-06T09:28:55;16.50;78.40
67750;DHT22;54550;48.838;8.828;2023-04-06T09:31:27;16.70;80.10
67750;DHT22;54550;48.838;8.828;2023-04-06T09:33:53;16.90;77.80
67750;DHT22;54550;48.838;8.828;2023-04-06T09:36:19;16.90;79.60
67750;DHT22;54550;48.838;8.828;2023-04-06T09:38:56;17.20;77.10
67750;DHT22;54550;48.838;8.828;2023-04-06T09:41:26;17.60;76.90
67750;DHT22;54550;48.838;8.828;2023-04-06T09:44:04;18.10;75.80
67750;DHT22;54550;48.838;8.828;2023-04-06T09:46:37;17.90;75.50
67750;DHT22;54550;48.838;8.828;2023-04-06T09:49:05;17.50;74.80
67750;DHT22;54550;48.838;8.828;2023-04-06T09:51:41;17.50;76.30
67750;DHT22;54550;48.838;8.828;2023-04-06T09:54:09;18.10;74.70
67750;DHT22;54550;48.838;8.828;2023-04-06T09:56:51;17.70;72.70
67750;DHT22;54550;48.838;8.828;2023-04-06T10:01:58;18.20;76.30
67750;DHT22;54550;48.838;8.828;2023-04-06T10:04:39;18.60;72.40
67750;DHT22;54550;48.838;8.828;2023-04-06T10:07:09;18.80;73.60
67750;DHT22;54550;48.838;8.828;2023-04-06T10:09:37;18.80;72.90
67750;DHT22;54550;48.838;8.828;2023-04-06T10:12:04;18.70;74.20
67750;DHT22;54550;48.838;8.828;2023-04-06T10:14:33;19.10;68.50
67750;DHT22;54550;48.838;8.828;2023-04-06T10:16:59;19.40;70.60
67750;DHT22;54550;48.838;8.828;2023-04-06T10:19:28;19.10;71.30
67750;DHT22;54550;48.838;8.828;2023-04-06T10:21:58;18.60;70.20
67750;DHT22;54550;48.838;8.828;2023-04-06T10:24:25;18.80;73.10
67750;DHT22;54550;48.838;8.828;2023-04-06T10:26:58;19.20;71.70
67750;DHT22;54550;48.838;8.828;2023-04-06T10:29:27;18.70;70.00
67750;DHT22;54550;48.838;8.828;2023-04-06T10:31:52;18.20;71.10
67750;DHT22;54550;48.838;8.828;2023-04-06T10:34:18;17.80;72.70
67750;DHT22;54550;48.838;8.828;2023-04-06T10:36:43;17.50;69.50
67750;DHT22;54550;48.838;8.828;2023-04-06T10:39:09;17.00;72.30
67750;DHT22;54550;48.838;8.828;2023-04-06T10:41:44;17.50;72.90
67750;DHT22;54550;48.838;8.828;2023-04-06T10:44:19;18.30;73.40
67750;DHT22;54550;48.838;8.828;2023-04-06T10:46:57;19.00;69.40
67750;DHT22;54550;48.838;8.828;2023-04-06T10:49:24;17.90;67.70
67750;DHT22;54550;48.838;8.828;2023-04-06T10:51:56;17.40;69.60
67750;DHT22;54550;48.838;8.828;2023-04-06T10:54:24;17.80;71.60
67750;DHT22;54550;48.838;8.828;2023-04-06T10:56:50;18.10;73.60
67750;DHT22;54550;48.838;8.828;2023-04-06T10:59:21;17.40;71.30
67750;DHT22;54550;48.838;8.828;2023-04-06T11:01:48;17.40;70.30
67750;DHT22;54550;48.838;8.828;2023-04-06T11:04:18;16.90;69.20
67750;DHT22;54550;48.838;8.828;2023-04-06T11:06:47;17.40;72.20
67750;DHT22;54550;48.838;8.828;2023-04-06T11:09:26;18.00;69.60
67750;DHT22;54550;48.838;8.828;2023-04-06T11:11:52;18.10;71.40
67750;DHT22;54550;48.838;8.828;2023-04-06T11:14:18;18.00;67.40
67750;DHT22;54550;48.838;8.828;2023-04-06T11:16:46;17.30;69.70
67750;DHT22;54550;48.838;8.828;2023-04-06T11:19:14;17.50;69.80
67750;DHT22;54550;48.838;8.828;2023-04-06T11:21:44;18.00;70.20
67750;DHT22;54550;48.838;8.828;2023-04-06T11:24:20;18.50;70.70
67750;DHT22;54550;48.838;8.828;2023-04-06T11:26:50;18.90;71.70
67750;DHT22;54550;48.838;8.828;2023-04-06T11:29:20;18.80;69.90
67750;DHT22;54550;48.838;8.828;2023-04-06T11:31:51;18.70;69.40
67750;DHT22;54550;48.838;8.828;2023-04-06T11:34:19;18.60;73.50
67750;DHT22;54550;48.838;8.828;2023-04-06T11:36:46;18.70;68.50
67750;DHT22;54550;48.838;8.828;2023-04-06T11:39:20;19.20;69.20
67750;DHT22;54550;48.838;8.828;2023-04-06T11:41:50;18.90;66.40
67750;DHT22;54550;48.838;8.828;2023-04-06T11:44:36;17.50;66.60
67750;DHT22;54550;48.838;8.828;2023-04-06T11:47:05;17.40;71.00
67750;DHT22;54550;48.838;8.828;2023-04-06T11:49:32;17.60;72.40
67750;DHT22;54550;48.838;8.828;2023-04-06T11:51:59;18.10;69.80
67750;DHT22;54550;48.838;8.828;2023-04-06T11:54:32;18.50;67.20
67750;DHT22;54550;48.838;8.828;2023-04-06T11:56:58;18.30;67.70
67750;DHT22;54550;48.838;8.828;2023-04-06T11:59:23;17.90;66.30
67750;DHT22;54550;48.838;8.828;2023-04-06T12:01:49;17.40;68.80
67750;DHT22;54550;48.838;8.828;2023-04-06T12:04:15;17.10;65.80
67750;DHT22;54550;48.838;8.828;2023-04-06T12:06:40;16.90;69.70
67750;DHT22;54550;48.838;8.828;2023-04-06T12:09:06;17.50;70.40
67750;DHT22;54550;48.838;8.828;2023-04-06T12:11:32;17.90;69.90
67750;DHT22;54550;48.838;8.828;2023-04-06T12:13:57;17.70;66.40
67750;DHT22;54550;48.838;8.828;2023-04-06T12:16:24;17.70;68.70
67750;DHT22;54550;48.838;8.828;2023-04-06T12:18:51;17.50;68.70
67750;DHT22;54550;48.838;8.828;2023-04-06T12:21:16;18.00;69.80
67750;DHT22;54550;48.838;8.828;2023-04-06T12:23:42;18.40;71.10
67750;DHT22;54550;48.838;8.828;2023-04-06T12:26:07;18.70;68.90
67750;DHT22;54550;48.838;8.828;2023-04-06T12:28:33;18.50;68.30
67750;DHT22;54550;48.838;8.828;2023-04-06T12:30:59;18.20;66.10
67750;DHT22;54550;48.838;8.828;2023-04-06T12:33:25;18.30;66.00
67750;DHT22;54550;48.838;8.828;2023-04-06T12:35:52;17.70;67.70
67750;DHT22;54550;48.838;8.828;2023-04-06T12:38:18;17.90;65.80
67750;DHT22;54550;48.838;8.828;2023-04-06T12:40:43;17.10;66.10
67750;DHT22;54550;48.838;8.828;2023-04-06T12:43:09;16.70;69.90
67750;DHT22;54550;48.838;8.828;2023-04-06T12:45:35;16.50;67.50
67750;DHT22;54550;48.838;8.828;2023-04-06T12:48:01;16.40;71.80
67750;DHT22;54550;48.838;8.828;2023-04-06T12:50:26;16.30;74.30
67750;DHT22;54550;48.838;8.828;2023-04-06T12:52:52;15.90;70.50
67750;DHT22;54550;48.838;8.828;2023-04-06T12:55:18;15.40;74.70
67750;DHT22;54550;48.838;8.828;2023-04-06T12:57:45;15.10;72.60
67750;DHT22;54550;48.838;8.828;2023-04-06T13:00:11;15.10;73.20
67750;DHT22;54550;48.838;8.828;2023-04-06T13:02:37;15.20;69.90
67750;DHT22;54550;48.838;8.828;2023-04-06T13:05:03;15.10;70.00
67750;DHT22;54550;48.838;8.828;2023-04-06T13:07:29;15.30;74.10
67750;DHT22;54550;48.838;8.828;2023-04-06T13:09:54;15.20;73.80
67750;DHT22;54550;48.838;8.828;2023-04-06T13:12:20;15.00;72.60
67750;DHT22;54550;48.838;8.828;2023-04-06T13:14:45;14.80;75.50
67750;DHT22;54550;48.838;8.828;2023-04-06T13:17:16;14.60;76.30
67750;DHT22;54550;48.838;8.828;2023-04-06T13:19:42;14.60;74.20
67750;DHT22;54550;48.838;8.828;2023-04-06T13:22:08;14.90;76.40
67750;DHT22;54550;48.838;8.828;2023-04-06T13:24:34;14.90;71.80
67750;DHT22;54550;48.838;8.828;2023-04-06T13:27:00;15.00;72.90
67750;DHT22;54550;48.838;8.828;2023-04-06T13:29:26;15.00;73.60
67750;DHT22;54550;48.838;8.828;2023-04-06T13:31:52;14.80;73.50
67750;DHT22;54550;48.838;8.828;2023-04-06T13:34:18;15.20;74.10
67750;DHT22;54550;48.838;8.828;2023-04-06T13:36:43;15.70;74.40
67750;DHT22;54550;48.838;8.828;2023-04-06T13:39:09;15.40;76.10
67750;DHT22;54550;48.838;8.828;2023-04-06T13:41:34;14.80;73.30
67750;DHT22;54550;48.838;8.828;2023-04-06T13:44:00;14.50;75.40
67750;DHT22;54550;48.838;8.828;2023-04-06T13:46:26;14.20;75.60
67750;DHT22;54550;48.838;8.828;2023-04-06T13:48:52;14.10;74.40
67750;DHT22;54550;48.838;8.828;2023-04-06T13:51:18;14.30;75.10
67750;DHT22;54550;48.838;8.828;2023-04-06T13:53:44;14.10;75.80
67750;DHT22;54550;48.838;8.828;2023-04-06T13:56:09;13.90;76.00
67750;DHT22;54550;48.838;8.828;2023-04-06T13:58:35;13.80;72.90
67750;DHT22;54550;48.838;8.828;2023-04-06T14:01:08;13.30;67.60
67750;DHT22;54550;48.838;8.828;2023-04-06T14:03:35;13.10;63.00
67750;DHT22;54550;48.838;8.828;2023-04-06T14:06:01;13.10;61.40
67750;DHT22;54550;48.838;8.828;2023-04-06T14:08:28;13.40;62.00
67750;DHT22;54550;48.838;8.828;2023-04-06T14:10:53;13.40;61.60
67750;DHT22;54550;48.838;8.828;2023-04-06T14:13:20;13.20;60.50
67750;DHT22;54550;48.838;8.828;2023-04-06T14:15:46;12.80;60.80
67750;DHT22;54550;48.838;8.828;2023-04-06T14:18:11;12.90;59.30
67750;DHT22;54550;48.838;8.828;2023-04-06T14:20:37;13.10;58.20
67750;DHT22;54550;48.838;8.828;2023-04-06T14:23:03;12.80;59.60
67750;DHT22;54550;48.838;8.828;2023-04-06T14:25:29;12.80;59.00
67750;DHT22;54550;48.838;8.828;2023-04-06T14:27:57;12.60;57.10
67750;DHT22;54550;48.838;8.828;2023-04-06T14:30:22;12.40;56.00
67750;DHT22;54550;48.838;8.828;2023-04-06T14:32:48;12.20;54.80
67750;DHT22;54550;48.838;8.828;2023-04-06T14:35:13;12.30;54.70
67750;DHT22;54550;48.838;8.828;2023-04-06T14:37:39;12.40;55.80
67750;DHT22;54550;48.838;8.828;2023-04-06T14:40:05;12.40;55.50
67750;DHT22;54550;48.838;8.828;2023-04-06T14:42:32;12.50;55.70
67750;DHT22;54550;48.838;8.828;2023-04-06T14:44:57;12.40;56.40
67750;DHT22;54550;48.838;8.828;2023-04-06T14:47:23;12.20;56.90
67750;DHT22;54550;48.838;8.828;2023-04-06T14:49:52;12.20;56.80
67750;DHT22;54550;48.838;8.828;2023-04-06T14:52:18;12.30;56.80
67750;DHT22;54550;48.838;8.828;2023-04-06T14:54:44;12.30;56.90
67750;DHT22;54550;48.838;8.828;2023-04-06T14:57:09;12.30;57.00
67750;DHT22;54550;48.838;8.828;2023-04-06T14:59:35;12.30;57.00
67750;DHT22;54550;48.838;8.828;2023-04-06T15:02:02;12.40;57.70
67750;DHT22;54550;48.838;8.828;2023-04-06T15:04:28;12.40;59.20
67750;DHT22;54550;48.838;8.828;2023-04-06T15:06:54;12.40;59.40
67750;DHT22;54550;48.838;8.828;2023-04-06T15:09:20;12.40;59.30
67750;DHT22;54550;48.838;8.828;2023-04-06T15:11:46;12.20;60.00
67750;DHT22;54550;48.838;8.828;2023-04-06T15:14:11;12.30;59.70
67750;DHT22;54550;48.838;8.828;2023-04-06T15:16:37;12.20;60.40
67750;DHT22;54550;48.838;8.828;2023-04-06T15:19:02;12.40;59.40
67750;DHT22;54550;48.838;8.828;2023-04-06T15:21:28;12.50;60.40
67750;DHT22;54550;48.838;8.828;2023-04-06T15:23:54;12.50;59.70
67750;DHT22;54550;48.838;8.828;2023-04-06T15:26:20;12.50;58.20
67750;DHT22;54550;48.838;8.828;2023-04-06T15:28:46;12.30;59.00
67750;DHT22;54550;48.838;8.828;2023-04-06T15:31:16;12.20;58.80
67750;DHT22;54550;48.838;8.828;2023-04-06T15:33:42;12.20;57.90